createdAt,value
2023-04-16T00:00:56.268Z,20.75
2023-04-16T00:03:25.626Z,21.65
2023-04-16T00:05:55.788Z,21.90
2023-04-16T00:08:25.399Z,22.38
2023-04-16T00:10:54.004Z,22.67
2023-04-16T00:13:22.561Z,22.70
2023-04-16T00:15:50.355Z,22.50
2023-04-16T00:18:18.248Z,23.65
2023-04-16T00:20:47.464Z,22.30
2023-04-16T00:23:15.340Z,24.05
2023-04-16T00:25:43.631Z,25.30
2023-04-16T00:28:11.436Z,23.90
2023-04-16T00:30:40.075Z,24.27
2023-04-16T00:33:07.898Z,25.45
2023-04-16T00:35:35.959Z,27.65
2023-04-16T00:38:05.551Z,28.23
2023-04-16T00:40:33.374Z,26.52
2023-04-16T00:43:01.352Z,28.27
2023-04-16T00:45:29.265Z,28.83
2023-04-16T00:48:00.610Z,28.27
2023-04-16T00:50:28.995Z,27.85
2023-04-16T00:52:58.120Z,28.80
2023-04-16T00:55:27.504Z,28.65
2023-04-16T00:57:55.703Z,29.63
2023-04-16T01:00:23.903Z,29.77
2023-04-16T01:02:51.903Z,29.10
2023-04-16T01:05:20.519Z,30.23
2023-04-16T01:07:48.629Z,29.85
2023-04-16T01:10:16.569Z,29.60
2023-04-16T01:12:45.907Z,29.48
2023-04-16T01:15:13.701Z,29.83
2023-04-16T01:17:42.441Z,29.98
2023-04-16T01:20:11.231Z,31.13
2023-04-16T01:22:40.536Z,30.63
2023-04-16T01:25:08.649Z,31.50
2023-04-16T01:27:37.670Z,29.85
2023-04-16T01:30:06.991Z,30.63
2023-04-16T01:32:46.467Z,31.15
2023-04-16T01:35:14.839Z,31.85
2023-04-16T01:37:45.059Z,30.85
2023-04-16T01:40:13.562Z,29.65
2023-04-16T01:42:41.660Z,32.33
2023-04-16T01:45:11.720Z,31.23
2023-04-16T01:47:41.801Z,27.83
2023-04-16T01:50:11.817Z,28.42
2023-04-16T01:52:39.781Z,27.75
2023-04-16T01:55:10.524Z,29.20
2023-04-16T01:57:39.014Z,29.70
2023-04-16T02:00:09.886Z,30.13
2023-04-16T02:02:46.738Z,29.52
2023-04-16T02:05:20.106Z,27.70
2023-04-16T02:07:47.932Z,30.67
2023-04-16T02:10:17.147Z,29.88
2023-04-16T02:12:45.632Z,29.63
2023-04-16T02:15:15.828Z,27.25
2023-04-16T02:17:43.765Z,30.80
2023-04-16T02:20:12.725Z,29.98
2023-04-16T02:22:52.903Z,30.15
2023-04-16T02:25:24.427Z,28.08
2023-04-16T02:27:54.856Z,30.27
2023-04-16T02:30:34.915Z,29.65
2023-04-16T02:33:05.477Z,27.52
2023-04-16T02:35:33.579Z,29.15
2023-04-16T02:38:01.937Z,31.92
2023-04-16T02:40:31.802Z,31.13
2023-04-16T02:43:00.515Z,29.60
2023-04-16T02:45:28.724Z,29.35
2023-04-16T02:47:56.685Z,28.38
2023-04-16T02:50:24.456Z,27.85
2023-04-16T02:52:52.499Z,28.15
2023-04-16T02:55:20.280Z,28.23
2023-04-16T02:57:49.359Z,27.52
2023-04-16T03:00:17.335Z,28.55
2023-04-16T03:02:45.228Z,27.02
2023-04-16T03:05:13.295Z,27.45
2023-04-16T03:07:41.121Z,27.70
2023-04-16T03:10:10.186Z,27.67
2023-04-16T03:12:37.979Z,26.73
2023-04-16T03:15:10.488Z,25.58
2023-04-16T03:17:38.434Z,26.45
2023-04-16T03:20:08.008Z,27.10
2023-04-16T03:22:36.006Z,27.85
2023-04-16T03:25:04.112Z,25.48
2023-04-16T03:27:32.275Z,26.20
2023-04-16T03:30:00.017Z,25.90
2023-04-16T03:32:30.412Z,23.20
2023-04-16T03:34:58.562Z,23.52
2023-04-16T03:37:26.668Z,22.58
2023-04-16T03:39:54.530Z,23.73
2023-04-16T03:42:22.844Z,22.98
2023-04-16T03:44:50.977Z,22.45
2023-04-16T03:47:19.936Z,24.38
2023-04-16T03:49:50.965Z,21.45
2023-04-16T03:52:21.140Z,23.63
2023-04-16T03:54:48.941Z,22.30
2023-04-16T03:57:24.380Z,21.48
2023-04-16T03:59:54.062Z,23.52
2023-04-16T04:02:22.879Z,22.08
2023-04-16T04:04:52.284Z,21.48
2023-04-16T04:07:20.218Z,20.50
2023-04-16T04:09:48.267Z,22.13
2023-04-16T04:12:16.532Z,19.70
2023-04-16T04:14:45.188Z,19.15
2023-04-16T04:17:13.028Z,20.65
2023-04-16T04:19:47.121Z,20.83
2023-04-16T04:22:23.907Z,19.27
2023-04-16T04:24:53.715Z,20.38
2023-04-16T04:27:21.823Z,20.08
2023-04-16T04:29:49.777Z,21.85
2023-04-16T04:32:17.646Z,21.33
2023-04-16T04:34:46.472Z,20.92
2023-04-16T04:37:14.277Z,20.60
2023-04-16T04:39:43.574Z,20.73
2023-04-16T04:42:13.841Z,21.63
2023-04-16T04:44:41.793Z,21.05
2023-04-16T04:47:10.179Z,22.25
2023-04-16T04:49:38.226Z,22.75
2023-04-16T04:52:06.237Z,21.85
2023-04-16T04:54:34.283Z,20.73
2023-04-16T04:57:03.775Z,21.95
2023-04-16T04:59:31.730Z,20.67
2023-04-16T05:02:02.440Z,21.75
2023-04-16T05:04:30.301Z,21.15
2023-04-16T05:06:58.045Z,21.45
2023-04-16T05:09:25.861Z,21.77
2023-04-16T05:11:53.917Z,23.95
2023-04-16T05:14:23.100Z,22.27
2023-04-16T05:16:51.423Z,22.05
2023-04-16T05:19:19.225Z,21.73
2023-04-16T05:21:46.997Z,21.13
2023-04-16T05:24:15.057Z,18.77
2023-04-16T05:26:43.201Z,19.35
2023-04-16T05:29:11.128Z,18.48
2023-04-16T05:31:41.038Z,18.58
2023-04-16T05:34:08.783Z,18.17
2023-04-16T05:36:36.596Z,18.60
2023-04-16T05:39:05.219Z,17.70
2023-04-16T05:41:33.071Z,19.35
2023-04-16T05:44:00.840Z,19.63
2023-04-16T05:46:28.686Z,17.98
2023-04-16T05:48:58.043Z,19.10
2023-04-16T05:51:27.243Z,18.55
2023-04-16T05:53:55.064Z,18.50
2023-04-16T05:56:23.461Z,20.42
2023-04-16T05:58:51.282Z,20.77
2023-04-16T06:01:19.404Z,19.17
2023-04-16T06:03:47.478Z,19.98
2023-04-16T06:06:16.764Z,19.58
2023-04-16T06:08:44.640Z,19.85
2023-04-16T06:11:12.553Z,20.83
2023-04-16T06:13:40.354Z,20.17
2023-04-16T06:16:08.686Z,19.67
2023-04-16T06:18:36.748Z,18.58
2023-04-16T06:21:05.096Z,19.48
2023-04-16T06:23:34.293Z,20.83
2023-04-16T06:26:02.238Z,19.63
2023-04-16T06:28:30.129Z,17.13
2023-04-16T06:30:58.222Z,18.52
2023-04-16T06:33:26.308Z,17.52
2023-04-16T06:35:54.165Z,19.10
2023-04-16T06:38:22.295Z,16.75
2023-04-16T06:40:51.352Z,17.63
2023-04-16T06:43:19.255Z,17.48
2023-04-16T06:45:47.096Z,16.02
2023-04-16T06:48:14.992Z,17.17
2023-04-16T06:50:42.839Z,15.80
2023-04-16T06:53:10.656Z,17.30
2023-04-16T06:55:38.690Z,16.25
2023-04-16T06:58:07.842Z,15.32
2023-04-16T07:00:35.725Z,15.32
2023-04-16T07:03:03.911Z,17.00
2023-04-16T07:05:31.946Z,17.08
2023-04-16T07:08:00.113Z,17.83
2023-04-16T07:10:27.875Z,18.30
2023-04-16T07:12:55.701Z,18.10
2023-04-16T07:15:24.796Z,18.08
2023-04-16T07:17:52.661Z,17.92
2023-04-16T07:20:20.471Z,18.70
2023-04-16T07:22:48.245Z,18.75
2023-04-16T07:25:16.053Z,17.77
2023-04-16T07:27:43.867Z,16.50
2023-04-16T07:30:12.450Z,16.95
2023-04-16T07:32:41.608Z,19.75
2023-04-16T07:35:10.162Z,18.20
2023-04-16T07:37:38.009Z,17.83
2023-04-16T07:40:06.887Z,16.95
2023-04-16T07:42:34.650Z,17.52
2023-04-16T07:45:02.434Z,16.50
2023-04-16T07:47:30.470Z,17.88
2023-04-16T07:49:59.716Z,16.15
2023-04-16T07:52:27.774Z,15.82
2023-04-16T07:54:55.570Z,15.88
2023-04-16T07:57:23.429Z,15.90
2023-04-16T07:59:51.455Z,15.43
2023-04-16T08:02:19.495Z,14.85
2023-04-16T08:04:47.574Z,15.20
2023-04-16T08:07:16.818Z,16.15
2023-04-16T08:09:52.777Z,14.88
2023-04-16T08:12:21.224Z,15.80
2023-04-16T08:14:49.307Z,16.50
2023-04-16T08:17:17.519Z,15.82
2023-04-16T08:19:45.883Z,16.23
2023-04-16T08:22:13.969Z,16.13
2023-04-16T08:24:43.322Z,15.00
2023-04-16T08:27:18.321Z,15.15
2023-04-16T08:29:47.288Z,14.40
2023-04-16T08:32:15.314Z,15.25
2023-04-16T08:34:43.900Z,15.05
2023-04-16T08:37:11.781Z,14.75
2023-04-16T08:39:39.550Z,15.15
2023-04-16T08:42:15.227Z,16.10
2023-04-16T08:44:49.214Z,16.33
2023-04-16T08:47:17.359Z,15.73
2023-04-16T08:49:46.188Z,15.20
2023-04-16T08:52:19.541Z,15.80
2023-04-16T08:54:57.052Z,15.30
2023-04-16T08:57:31.770Z,14.63
2023-04-16T09:00:00.572Z,17.08
2023-04-16T09:02:29.688Z,15.32
2023-04-16T09:05:00.822Z,15.70
2023-04-16T09:07:30.252Z,17.48
2023-04-16T09:10:00.668Z,16.02
2023-04-16T09:12:31.844Z,15.35
2023-04-16T09:15:03.046Z,15.35
2023-04-16T09:17:31.055Z,16.63
2023-04-16T09:19:59.112Z,15.63
2023-04-16T09:22:26.873Z,15.85
2023-04-16T09:24:54.783Z,14.63
2023-04-16T09:27:25.371Z,16.20
2023-04-16T09:29:55.476Z,16.23
2023-04-16T09:32:27.430Z,15.50
2023-04-16T09:34:57.727Z,16.40
2023-04-16T09:37:26.360Z,15.30
2023-04-16T09:39:56.756Z,14.88
2023-04-16T09:42:29.083Z,14.70
2023-04-16T09:45:00.496Z,14.50
2023-04-16T09:47:41.027Z,16.75
2023-04-16T09:50:12.501Z,16.05
2023-04-16T09:52:40.883Z,15.05
2023-04-16T09:55:10.261Z,16.75
2023-04-16T09:57:39.473Z,16.30
2023-04-16T10:00:10.483Z,16.45
2023-04-16T10:02:42.020Z,16.83
2023-04-16T10:05:10.695Z,14.85
2023-04-16T10:07:39.055Z,15.80
2023-04-16T10:10:08.159Z,16.67
2023-04-16T10:12:35.909Z,15.63
2023-04-16T10:15:04.913Z,15.60
2023-04-16T10:17:34.720Z,14.80
2023-04-16T10:20:04.220Z,16.48
2023-04-16T10:22:32.251Z,15.32
2023-04-16T10:25:00.525Z,15.70
2023-04-16T10:27:29.130Z,16.42
2023-04-16T10:29:57.717Z,16.98
2023-04-16T10:32:28.768Z,15.07
2023-04-16T10:34:59.035Z,17.50
2023-04-16T10:37:31.221Z,15.80
2023-04-16T10:39:59.917Z,16.52
2023-04-16T10:42:27.762Z,16.92
2023-04-16T10:44:55.620Z,15.35
2023-04-16T10:47:27.218Z,16.52
2023-04-16T10:49:55.247Z,17.98
2023-04-16T10:52:25.468Z,15.55
2023-04-16T10:54:55.661Z,15.98
2023-04-16T10:57:23.507Z,16.48
2023-04-16T10:59:51.461Z,16.17
2023-04-16T11:02:20.452Z,17.52
2023-04-16T11:04:49.989Z,17.65
2023-04-16T11:07:20.738Z,18.38
2023-04-16T11:09:53.686Z,17.67
2023-04-16T11:12:23.152Z,17.80
2023-04-16T11:14:52.330Z,18.55
2023-04-16T11:17:20.798Z,17.95
2023-04-16T11:19:49.090Z,17.45
2023-04-16T11:22:18.816Z,18.25
2023-04-16T11:24:47.322Z,18.58
2023-04-16T11:27:17.027Z,17.75
2023-04-16T11:29:46.934Z,17.30
2023-04-16T11:32:22.532Z,17.10
2023-04-16T11:34:50.566Z,17.73
2023-04-16T11:37:21.995Z,17.88
2023-04-16T11:39:51.304Z,17.92
2023-04-16T11:42:24.119Z,17.80
2023-04-16T11:44:56.798Z,18.73
2023-04-16T11:47:25.762Z,17.88
2023-04-16T11:49:54.011Z,17.95
2023-04-16T11:52:28.864Z,16.70
2023-04-16T11:54:57.709Z,17.60
2023-04-16T11:57:28.177Z,18.05
2023-04-16T12:00:01.454Z,17.40
2023-04-16T12:02:42.037Z,16.83
2023-04-16T12:05:28.164Z,17.85
2023-04-16T12:07:56.545Z,16.05
2023-04-16T12:10:24.706Z,16.75
2023-04-16T12:12:54.179Z,17.13
2023-04-16T12:15:22.073Z,16.05
2023-04-16T12:17:50.645Z,16.05
2023-04-16T12:20:18.572Z,16.42
2023-04-16T12:22:48.347Z,17.20
2023-04-16T12:25:17.508Z,14.98
2023-04-16T12:27:47.775Z,15.73
2023-04-16T12:30:18.587Z,15.50
2023-04-16T12:32:52.634Z,16.77
2023-04-16T12:35:31.729Z,17.05
2023-04-16T12:37:59.925Z,17.48
2023-04-16T12:40:28.233Z,17.85
2023-04-16T12:42:56.243Z,17.75
2023-04-16T12:45:26.028Z,17.60
2023-04-16T12:47:53.898Z,17.83
2023-04-16T12:50:21.874Z,16.95
2023-04-16T12:52:50.015Z,16.52
2023-04-16T12:55:18.341Z,16.73
2023-04-16T12:57:48.922Z,25.90
2023-04-16T13:00:17.802Z,20.40
2023-04-16T13:02:47.868Z,16.63
2023-04-16T13:05:19.496Z,16.85
2023-04-16T13:07:47.714Z,18.00
2023-04-16T13:10:16.702Z,16.70
2023-04-16T13:12:46.513Z,16.20
2023-04-16T13:15:14.605Z,17.70
2023-04-16T13:17:42.519Z,16.75
2023-04-16T13:20:12.350Z,17.08
2023-04-16T13:22:40.347Z,18.38
2023-04-16T13:25:09.771Z,18.05
2023-04-16T13:27:37.618Z,17.23
2023-04-16T13:30:06.404Z,16.88
2023-04-16T13:32:34.258Z,17.88
2023-04-16T13:35:02.277Z,16.27
2023-04-16T13:37:31.653Z,16.55
2023-04-16T13:39:59.578Z,17.52
2023-04-16T13:42:28.381Z,15.98
2023-04-16T13:44:58.178Z,15.35
2023-04-16T13:47:26.442Z,16.50
2023-04-16T13:49:54.451Z,17.20
2023-04-16T13:52:22.391Z,16.25
2023-04-16T13:54:51.905Z,15.77
2023-04-16T13:57:22.759Z,15.55
2023-04-16T13:59:50.732Z,16.90
2023-04-16T14:02:18.687Z,15.77
2023-04-16T14:04:46.575Z,15.40
2023-04-16T14:07:15.529Z,15.20
2023-04-16T14:09:43.514Z,17.58
2023-04-16T14:12:12.960Z,16.77
2023-04-16T14:14:42.201Z,17.65
2023-04-16T14:17:10.053Z,15.18
2023-04-16T14:19:37.904Z,16.00
2023-04-16T14:22:08.721Z,16.15
2023-04-16T14:24:37.819Z,16.02
2023-04-16T14:27:05.937Z,15.60
2023-04-16T14:29:36.651Z,16.55
2023-04-16T14:32:05.318Z,15.65
2023-04-16T14:34:33.186Z,14.98
2023-04-16T14:37:01.130Z,15.25
2023-04-16T14:39:29.512Z,15.45
2023-04-16T14:41:57.582Z,14.80
2023-04-16T14:44:25.563Z,14.52
2023-04-16T14:46:55.460Z,15.35
2023-04-16T14:49:23.254Z,14.50
2023-04-16T14:51:52.451Z,15.30
2023-04-16T14:54:20.418Z,15.63
2023-04-16T14:56:48.486Z,16.80
2023-04-16T14:59:16.417Z,16.00
2023-04-16T15:01:44.357Z,14.75
2023-04-16T15:04:13.896Z,15.95
2023-04-16T15:06:42.046Z,15.15
2023-04-16T15:09:10.427Z,15.35
2023-04-16T15:11:38.679Z,16.05
2023-04-16T15:14:06.916Z,15.48
2023-04-16T15:16:34.810Z,17.30
2023-04-16T15:19:04.960Z,16.92
2023-04-16T15:21:34.589Z,17.13
2023-04-16T15:24:03.416Z,19.00
2023-04-16T15:26:31.385Z,18.13
2023-04-16T15:28:59.239Z,18.00
2023-04-16T15:31:27.270Z,18.77
2023-04-16T15:33:56.106Z,18.73
2023-04-16T15:36:24.130Z,18.15
2023-04-16T15:38:53.683Z,19.40
2023-04-16T15:41:21.730Z,19.80
2023-04-16T15:43:49.705Z,20.30
2023-04-16T15:46:17.692Z,20.10
2023-04-16T15:48:46.738Z,20.08
2023-04-16T15:51:14.734Z,19.42
2023-04-16T15:53:44.811Z,19.98
2023-04-16T15:56:14.218Z,20.30
2023-04-16T15:58:42.241Z,19.92
2023-04-16T16:01:10.218Z,20.50
2023-04-16T16:03:38.411Z,20.45
2023-04-16T16:06:08.485Z,22.25
2023-04-16T16:08:38.338Z,21.83
2023-04-16T16:11:06.296Z,20.73
2023-04-16T16:13:37.125Z,20.05
2023-04-16T16:16:05.606Z,20.00
2023-04-16T16:18:33.458Z,19.10
2023-04-16T16:21:01.475Z,20.40
2023-04-16T16:23:29.442Z,17.23
2023-04-16T16:25:57.599Z,17.10
2023-04-16T16:28:25.554Z,17.38
2023-04-16T16:30:55.819Z,17.38
2023-04-16T16:33:23.657Z,17.30
2023-04-16T16:35:51.407Z,17.02
2023-04-16T16:38:19.197Z,17.35
2023-04-16T16:40:46.965Z,18.50
2023-04-16T16:43:14.852Z,18.13
2023-04-16T16:45:42.610Z,17.65
2023-04-16T16:48:11.827Z,17.13
2023-04-16T16:50:39.698Z,17.58
2023-04-16T16:53:07.751Z,17.05
2023-04-16T16:55:36.136Z,17.35
2023-04-16T16:58:04.689Z,17.17
2023-04-16T17:00:32.771Z,18.40
2023-04-16T17:03:01.218Z,18.15
2023-04-16T17:05:30.658Z,18.38
2023-04-16T17:07:58.482Z,20.63
2023-04-16T17:10:26.508Z,19.10
2023-04-16T17:12:55.733Z,19.25
2023-04-16T17:15:23.953Z,18.55
2023-04-16T17:17:51.867Z,18.45
2023-04-16T17:20:19.950Z,18.85
2023-04-16T17:22:49.280Z,18.55
2023-04-16T17:25:17.307Z,18.60
2023-04-16T17:27:45.049Z,15.50
2023-04-16T17:30:13.285Z,18.10
2023-04-16T17:32:41.256Z,18.10
2023-04-16T17:35:10.385Z,20.52
2023-04-16T17:37:39.080Z,19.70
2023-04-16T17:40:10.239Z,17.67
2023-04-16T17:42:38.644Z,19.27
2023-04-16T17:45:07.724Z,19.27
2023-04-16T17:47:36.244Z,19.30
2023-04-16T17:50:04.731Z,19.08
2023-04-16T17:52:32.639Z,19.83
2023-04-16T17:55:01.755Z,19.35
2023-04-16T17:57:31.568Z,17.75
2023-04-16T17:59:59.488Z,17.73
2023-04-16T18:02:27.570Z,19.25
2023-04-16T18:04:55.724Z,17.87
2023-04-16T18:07:24.046Z,16.75
2023-04-16T18:09:52.150Z,15.88
2023-04-16T18:12:20.152Z,16.77
2023-04-16T18:14:49.578Z,16.45
2023-04-16T18:17:17.799Z,16.60
2023-04-16T18:19:45.703Z,16.42
2023-04-16T18:22:13.715Z,15.70
2023-04-16T18:24:41.630Z,15.70
2023-04-16T18:27:09.686Z,15.20
2023-04-16T18:29:39.977Z,16.17
2023-04-16T18:32:11.994Z,15.18
2023-04-16T18:34:40.607Z,15.73
2023-04-16T18:37:08.836Z,14.80
2023-04-16T18:39:37.041Z,15.77
2023-04-16T18:42:05.238Z,17.05
2023-04-16T18:44:33.162Z,16.48
2023-04-16T18:47:01.038Z,17.00
2023-04-16T18:49:30.658Z,15.95
2023-04-16T18:51:58.393Z,16.92
2023-04-16T18:54:28.043Z,15.93
2023-04-16T18:56:57.318Z,16.52
2023-04-16T18:59:25.960Z,15.15
2023-04-16T19:01:54.065Z,15.25
2023-04-16T19:04:22.022Z,14.18
2023-04-16T19:06:51.374Z,16.20
2023-04-16T19:09:19.895Z,16.27
2023-04-16T19:11:50.602Z,14.88
2023-04-16T19:14:18.546Z,15.52
2023-04-16T19:16:46.489Z,14.32
2023-04-16T19:19:14.471Z,15.85
2023-04-16T19:21:42.362Z,16.10
2023-04-16T19:24:11.571Z,14.68
2023-04-16T19:26:39.500Z,15.23
2023-04-16T19:29:07.324Z,15.93
2023-04-16T19:31:35.132Z,15.52
2023-04-16T19:34:04.193Z,16.33
2023-04-16T19:36:32.434Z,16.85
2023-04-16T19:39:00.172Z,17.00
2023-04-16T19:41:29.281Z,16.20
2023-04-16T19:43:57.914Z,16.50
2023-04-16T19:46:25.931Z,16.40
2023-04-16T19:48:53.772Z,15.88
2023-04-16T19:51:21.598Z,15.23
2023-04-16T19:53:49.573Z,15.40
2023-04-16T19:56:17.597Z,16.52
2023-04-16T19:58:46.807Z,16.33
2023-04-16T20:01:14.599Z,16.73
2023-04-16T20:03:42.728Z,15.82
2023-04-16T20:06:10.609Z,15.80
2023-04-16T20:08:38.747Z,16.17
2023-04-16T20:11:08.455Z,16.20
2023-04-16T20:13:37.721Z,17.27
2023-04-16T20:16:08.508Z,17.45
2023-04-16T20:18:41.205Z,18.40
2023-04-16T20:21:09.382Z,18.60
2023-04-16T20:23:37.307Z,18.17
2023-04-16T20:26:05.492Z,19.98
2023-04-16T20:28:33.204Z,20.02
2023-04-16T20:31:01.121Z,19.17
2023-04-16T20:33:30.379Z,23.13
2023-04-16T20:35:58.352Z,22.90
2023-04-16T20:38:26.122Z,21.40
2023-04-16T20:41:06.391Z,22.50
2023-04-16T20:43:38.349Z,24.52
2023-04-16T20:46:06.238Z,23.77
2023-04-16T20:48:36.085Z,21.55
2023-04-16T20:51:05.298Z,20.85
2023-04-16T20:53:33.824Z,19.88
2023-04-16T20:56:01.744Z,21.05
2023-04-16T20:58:30.125Z,20.73
2023-04-16T21:00:58.567Z,20.55
2023-04-16T21:03:26.547Z,19.83
2023-04-16T21:05:56.716Z,17.65
2023-04-16T21:08:24.987Z,17.02
2023-04-16T21:10:52.818Z,19.50
2023-04-16T21:13:21.799Z,17.85
2023-04-16T21:15:49.599Z,19.33
2023-04-16T21:18:18.559Z,17.52
2023-04-16T21:20:46.388Z,16.70
2023-04-16T21:23:15.594Z,17.58
2023-04-16T21:25:43.405Z,18.38
2023-04-16T21:28:11.219Z,18.67
2023-04-16T21:30:39.451Z,17.38
2023-04-16T21:33:07.829Z,16.60
2023-04-16T21:35:35.859Z,16.52
2023-04-16T21:38:03.892Z,17.15
2023-04-16T21:40:33.155Z,17.23
2023-04-16T21:43:01.112Z,16.42
2023-04-16T21:45:30.523Z,16.55
2023-04-16T21:47:58.503Z,16.20
2023-04-16T21:50:26.401Z,16.17
2023-04-16T21:52:54.823Z,16.55
2023-04-16T21:55:22.637Z,15.68
2023-04-16T21:57:51.741Z,17.35
2023-04-16T22:00:21.124Z,18.05
2023-04-16T22:02:49.211Z,20.10
2023-04-16T22:05:17.567Z,18.15
2023-04-16T22:07:45.319Z,20.17
2023-04-16T22:10:15.159Z,18.73
2023-04-16T22:12:44.859Z,19.63
2023-04-16T22:15:14.767Z,21.02
2023-04-16T22:17:42.727Z,20.30
2023-04-16T22:20:12.745Z,19.02
2023-04-16T22:22:40.615Z,19.73
2023-04-16T22:25:09.167Z,20.42
2023-04-16T22:27:37.240Z,19.17
2023-04-16T22:30:06.052Z,18.65
2023-04-16T22:32:35.405Z,19.88
2023-04-16T22:35:03.396Z,19.25
2023-04-16T22:37:31.296Z,19.48
2023-04-16T22:39:59.044Z,19.60
2023-04-16T22:42:27.048Z,20.70
2023-04-16T22:44:54.815Z,18.92
2023-04-16T22:47:22.651Z,18.27
2023-04-16T22:49:51.890Z,20.95
2023-04-16T22:52:19.604Z,20.23
2023-04-16T22:54:47.424Z,21.10
2023-04-16T22:57:17.332Z,20.77
2023-04-16T22:59:45.074Z,19.58
2023-04-16T23:02:12.819Z,19.65
2023-04-16T23:04:40.690Z,20.08
2023-04-16T23:07:10.122Z,21.23
2023-04-16T23:09:37.906Z,22.30
2023-04-16T23:12:06.191Z,20.33
2023-04-16T23:14:34.497Z,21.17
2023-04-16T23:17:02.497Z,20.90
2023-04-16T23:19:31.189Z,21.42
2023-04-16T23:21:59.091Z,20.38
2023-04-16T23:24:28.288Z,21.92
2023-04-16T23:26:56.050Z,19.98
2023-04-16T23:29:24.077Z,21.30
2023-04-16T23:31:52.187Z,22.38
2023-04-16T23:34:20.051Z,22.08
2023-04-16T23:36:47.898Z,21.85
2023-04-16T23:39:15.793Z,20.98
2023-04-16T23:41:44.897Z,20.92
2023-04-16T23:44:12.662Z,22.67
2023-04-16T23:46:41.077Z,22.50
2023-04-16T23:49:09.072Z,21.10
2023-04-16T23:51:36.950Z,21.85
2023-04-16T23:54:04.951Z,20.65
2023-04-16T23:56:32.668Z,21.65
2023-04-16T23:59:01.794Z,21.55
